Time;durP1;ratioP1;P1;durP2;ratioP2;P2;SDS_P1;SDS_P2;PMS_P1;PMS_P2;Temp;Humidity;BMP_temperature;BMP_pressure;BME280_temperature;BME280_humidity;BME280_pressure;Samples;Min_cycle;Max_cycle;Signal;HPM_P1;HPM_P2
2020/12/02 00:01:13;;;;;;;34.95;22.60;;;;;;;;;;5114830;27;20483;-77
2020/12/02 00:03:41;;;;;;;31.48;21.92;;;;;;;;;;5100991;27;20387;-77
2020/12/02 00:06:08;;;;;;;33.65;22.38;;;;;;;;;;5115935;27;20423;-77
2020/12/02 00:08:39;;;;;;;33.00;23.10;;;;;;;;;;5121527;27;20380;-77
2020/12/02 00:11:07;;;;;;;37.47;23.15;;;;;;;;;;5130087;27;20418;-77
2020/12/02 00:13:40;;;;;;;34.43;22.13;;;;;;;;;;5089185;27;20414;-77
2020/12/02 00:16:07;;;;;;;34.28;23.05;;;;;;;;;;5104568;27;20866;-77
2020/12/02 00:18:34;;;;;;;33.50;21.33;;;;;;;;;;5112637;27;20440;-77
2020/12/02 00:21:00;;;;;;;31.67;22.45;;;;;;;;;;5107176;28;20944;-77
2020/12/02 00:23:26;;;;;;;34.80;22.52;;;;;;;;;;5097604;28;20392;-77
2020/12/02 00:25:52;;;;;;;33.17;22.25;;;;;;;;;;5104676;27;20442;-77
2020/12/02 00:28:18;;;;;;;35.78;22.38;;;;;;;;;;5096819;27;20563;-77
2020/12/02 00:30:44;;;;;;;32.00;21.83;;;;;;;;;;5132269;27;20776;-77
2020/12/02 00:33:15;;;;;;;34.03;22.40;;;;;;;;;;5111000;27;20545;-77
2020/12/02 00:35:41;;;;;;;34.60;23.13;;;;;;;;;;5116306;27;20386;-78
2020/12/02 00:38:08;;;;;;;35.65;22.95;;;;;;;;;;5100655;28;20380;-78
2020/12/02 00:40:35;;;;;;;36.20;23.98;;;;;;;;;;5116221;27;20390;-77
2020/12/02 00:43:01;;;;;;;36.83;23.52;;;;;;;;;;5100235;28;20385;-78
2020/12/02 00:45:27;;;;;;;33.53;23.27;;;;;;;;;;5095290;28;20377;-77
2020/12/02 00:47:53;;;;;;;37.07;23.43;;;;;;;;;;5110506;28;20551;-78
2020/12/02 00:50:21;;;;;;;35.25;23.60;;;;;;;;;;5103790;28;20430;-77
2020/12/02 00:53:07;;;;;;;36.58;23.58;;;;;;;;;;5121531;27;20384;-78
2020/12/02 00:55:33;;;;;;;35.93;23.00;;;;;;;;;;5112716;27;20863;-77
2020/12/02 00:58:01;;;;;;;35.83;23.02;;;;;;;;;;5127910;27;20407;-77
2020/12/02 01:00:28;;;;;;;34.75;22.55;;;;;;;;;;5109341;28;20373;-77
2020/12/02 01:03:15;;;;;;;36.10;24.25;;;;;;;;;;5112153;28;20467;-77
2020/12/02 01:05:41;;;;;;;34.58;23.15;;;;;;;;;;5115093;27;20460;-77
2020/12/02 01:08:11;;;;;;;34.97;24.17;;;;;;;;;;5108009;27;20477;-77
2020/12/02 01:10:38;;;;;;;35.22;23.60;;;;;;;;;;5112076;28;20388;-77
2020/12/02 01:13:04;;;;;;;34.15;22.92;;;;;;;;;;5110520;28;20385;-77
2020/12/02 01:15:30;;;;;;;32.42;22.10;;;;;;;;;;5107098;28;20380;-77
2020/12/02 01:18:22;;;;;;;34.10;23.23;;;;;;;;;;5103861;27;20383;-77
2020/12/02 01:20:52;;;;;;;37.42;23.55;;;;;;;;;;5095582;27;20485;-77
2020/12/02 01:23:18;;;;;;;34.78;23.60;;;;;;;;;;5088191;28;20392;-77
2020/12/02 01:25:45;;;;;;;33.27;22.43;;;;;;;;;;5119632;27;20945;-77
2020/12/02 01:28:15;;;;;;;34.30;23.02;;;;;;;;;;5120918;27;20391;-77
2020/12/02 01:30:42;;;;;;;33.58;22.60;;;;;;;;;;5104827;27;20402;-77
2020/12/02 01:33:08;;;;;;;36.53;22.67;;;;;;;;;;5099340;27;20387;-77
2020/12/02 01:35:34;;;;;;;34.08;23.33;;;;;;;;;;5097178;28;20396;-77
2020/12/02 01:38:02;;;;;;;32.17;22.43;;;;;;;;;;5112011;27;20397;-78
2020/12/02 01:40:32;;;;;;;36.35;23.42;;;;;;;;;;5117207;27;20387;-77
2020/12/02 01:43:00;;;;;;;33.08;22.55;;;;;;;;;;5107952;27;20742;-78
2020/12/02 01:45:43;;;;;;;32.70;22.38;;;;;;;;;;5116791;27;20384;-78
2020/12/02 01:48:30;;;;;;;35.30;22.73;;;;;;;;;;5129874;27;20406;-78
2020/12/02 01:51:05;;;;;;;37.20;22.52;;;;;;;;;;5103893;27;20378;-78
2020/12/02 01:53:45;;;;;;;33.78;22.67;;;;;;;;;;5091628;28;20391;-77
2020/12/02 01:56:44;;;;;;;37.73;24.03;;;;;;;;;;5103320;27;20470;-77
2020/12/02 01:59:25;;;;;;;34.88;23.23;;;;;;;;;;5062361;27;20392;-78
2020/12/02 02:02:14;;;;;;;35.15;23.67;;;;;;;;;;5121411;27;20887;-77
2020/12/02 02:04:43;;;;;;;36.03;23.65;;;;;;;;;;5081719;28;21072;-78
2020/12/02 02:07:15;;;;;;;34.42;22.67;;;;;;;;;;5106132;27;20746;-77
2020/12/02 02:09:42;;;;;;;33.25;22.92;;;;;;;;;;5112618;27;20828;-78
2020/12/02 02:12:19;;;;;;;34.95;22.88;;;;;;;;;;5100607;28;20368;-77
2020/12/02 02:14:55;;;;;;;36.42;23.13;;;;;;;;;;5118165;27;20384;-77
2020/12/02 02:17:21;;;;;;;34.90;22.95;;;;;;;;;;5115401;27;20382;-77
2020/12/02 02:19:47;;;;;;;33.07;22.77;;;;;;;;;;5113763;27;20382;-77
2020/12/02 02:22:13;;;;;;;34.72;23.48;;;;;;;;;;5105576;27;20467;-77
2020/12/02 02:24:39;;;;;;;35.43;23.57;;;;;;;;;;5126651;27;20386;-77
2020/12/02 02:27:05;;;;;;;36.75;24.17;;;;;;;;;;5115499;27;21160;-77
2020/12/02 02:29:53;;;;;;;36.25;23.02;;;;;;;;;;5113092;28;20382;-78
2020/12/02 02:32:24;;;;;;;35.42;24.20;;;;;;;;;;5101272;28;20428;-77
2020/12/02 02:34:53;;;;;;;33.80;22.67;;;;;;;;;;5098140;28;20409;-78
2020/12/02 02:37:20;;;;;;;36.28;24.08;;;;;;;;;;5107294;28;20384;-77
2020/12/02 02:39:46;;;;;;;36.42;24.17;;;;;;;;;;5120984;27;20387;-77
2020/12/02 02:42:27;;;;;;;35.55;23.50;;;;;;;;;;5101344;28;20414;-78
2020/12/02 02:44:53;;;;;;;34.75;23.65;;;;;;;;;;5117657;28;20392;-77
2020/12/02 02:47:20;;;;;;;37.50;24.40;;;;;;;;;;5115256;28;20887;-77
2020/12/02 02:49:46;;;;;;;37.38;24.67;;;;;;;;;;5123827;28;20889;-77
2020/12/02 02:52:12;;;;;;;38.47;25.10;;;;;;;;;;5103586;28;20433;-78
2020/12/02 02:54:38;;;;;;;34.78;23.48;;;;;;;;;;5110154;28;20811;-77
2020/12/02 02:57:04;;;;;;;38.53;24.80;;;;;;;;;;5101539;28;20967;-77
2020/12/02 02:59:30;;;;;;;36.28;24.00;;;;;;;;;;5123877;28;20493;-77
2020/12/02 03:01:56;;;;;;;35.97;24.48;;;;;;;;;;5119212;28;20431;-78
2020/12/02 03:04:22;;;;;;;37.88;24.92;;;;;;;;;;5110359;28;20728;-77
2020/12/02 03:06:48;;;;;;;37.30;24.92;;;;;;;;;;5111123;28;20475;-77
2020/12/02 03:09:14;;;;;;;36.42;24.95;;;;;;;;;;5101687;28;20471;-78
2020/12/02 03:11:41;;;;;;;36.65;24.08;;;;;;;;;;5111375;28;20465;-77
2020/12/02 03:14:07;;;;;;;35.88;24.73;;;;;;;;;;5115273;28;20394;-77
2020/12/02 03:16:36;;;;;;;38.63;24.85;;;;;;;;;;5120683;28;20388;-78
2020/12/02 03:19:09;;;;;;;37.20;24.92;;;;;;;;;;5113421;28;20396;-78
2020/12/02 03:21:35;;;;;;;34.80;24.52;;;;;;;;;;5110214;28;20451;-77
2020/12/02 03:24:01;;;;;;;34.67;23.70;;;;;;;;;;5112856;28;20955;-78
2020/12/02 03:26:27;;;;;;;37.80;25.42;;;;;;;;;;5114967;28;20851;-77
2020/12/02 03:28:53;;;;;;;35.05;24.15;;;;;;;;;;5079447;28;20983;-77
2020/12/02 03:31:21;;;;;;;35.30;24.92;;;;;;;;;;5116605;28;20382;-77
2020/12/02 03:33:47;;;;;;;37.92;26.27;;;;;;;;;;5116714;28;20388;-78
2020/12/02 03:36:15;;;;;;;38.83;25.60;;;;;;;;;;5114649;28;20401;-77
2020/12/02 03:38:42;;;;;;;38.33;24.98;;;;;;;;;;5104596;28;20444;-77
2020/12/02 03:41:08;;;;;;;37.35;24.05;;;;;;;;;;5091312;28;20416;-78
2020/12/02 03:43:34;;;;;;;40.35;25.63;;;;;;;;;;5087431;28;20440;-77
2020/12/02 03:46:00;;;;;;;36.08;24.38;;;;;;;;;;5083916;28;20399;-77
2020/12/02 03:48:26;;;;;;;35.88;24.17;;;;;;;;;;5092065;28;20403;-77
2020/12/02 03:50:52;;;;;;;37.70;24.65;;;;;;;;;;5098858;28;20397;-78
2020/12/02 03:53:18;;;;;;;37.95;24.27;;;;;;;;;;5106939;28;20391;-77
2020/12/02 03:55:45;;;;;;;37.78;25.17;;;;;;;;;;5112258;28;20483;-77
2020/12/02 03:58:11;;;;;;;38.47;25.45;;;;;;;;;;5107462;27;20397;-78
2020/12/02 04:00:37;;;;;;;41.28;25.33;;;;;;;;;;5098667;28;20391;-77
2020/12/02 04:03:04;;;;;;;36.20;24.70;;;;;;;;;;5114384;28;20388;-78
2020/12/02 04:05:29;;;;;;;40.63;25.63;;;;;;;;;;5104543;28;20388;-77
2020/12/02 04:07:56;;;;;;;39.22;25.50;;;;;;;;;;5100265;28;20400;-77
2020/12/02 04:10:22;;;;;;;41.25;26.95;;;;;;;;;;5084129;28;20389;-77
2020/12/02 04:12:48;;;;;;;42.70;26.65;;;;;;;;;;5081332;28;20382;-78
2020/12/02 04:15:15;;;;;;;43.65;27.00;;;;;;;;;;5095403;28;20385;-77
2020/12/02 04:17:41;;;;;;;43.55;27.52;;;;;;;;;;5101797;28;20392;-77
2020/12/02 04:20:07;;;;;;;43.78;27.95;;;;;;;;;;5095995;28;20918;-77
2020/12/02 04:22:33;;;;;;;51.17;29.33;;;;;;;;;;5099547;28;21137;-78
2020/12/02 04:24:59;;;;;;;45.22;28.40;;;;;;;;;;5101109;28;20393;-78
2020/12/02 04:27:25;;;;;;;43.95;28.27;;;;;;;;;;5106967;28;20381;-78
2020/12/02 04:29:51;;;;;;;45.72;29.77;;;;;;;;;;5103212;28;20888;-77
2020/12/02 04:32:17;;;;;;;46.60;28.90;;;;;;;;;;5107488;28;20388;-77
2020/12/02 04:34:43;;;;;;;45.73;28.17;;;;;;;;;;5105561;28;20454;-78
2020/12/02 04:37:09;;;;;;;46.20;27.92;;;;;;;;;;5106394;28;20384;-77
2020/12/02 04:39:36;;;;;;;44.47;27.40;;;;;;;;;;5105171;28;20384;-78
2020/12/02 04:42:02;;;;;;;45.80;28.27;;;;;;;;;;5106186;27;20502;-77
2020/12/02 04:44:28;;;;;;;41.93;26.23;;;;;;;;;;5109785;27;20422;-77
2020/12/02 04:46:57;;;;;;;43.10;26.23;;;;;;;;;;5127611;27;20482;-78
2020/12/02 04:49:28;;;;;;;43.17;27.00;;;;;;;;;;5115216;27;20448;-78
2020/12/02 04:51:58;;;;;;;40.95;26.27;;;;;;;;;;5129594;27;20482;-78
2020/12/02 04:54:24;;;;;;;39.55;26.25;;;;;;;;;;5130195;27;20383;-78
2020/12/02 04:56:50;;;;;;;44.38;26.95;;;;;;;;;;5111133;27;20477;-77
2020/12/02 04:59:34;;;;;;;41.63;27.67;;;;;;;;;;5091905;27;20750;-77
2020/12/02 05:02:00;;;;;;;41.50;27.15;;;;;;;;;;5106631;27;20440;-77
2020/12/02 05:04:27;;;;;;;41.85;26.92;;;;;;;;;;5095756;27;20435;-77
2020/12/02 05:07:06;;;;;;;46.67;28.55;;;;;;;;;;5106492;27;20375;-77
2020/12/02 05:09:33;;;;;;;50.47;29.63;;;;;;;;;;5095241;27;20880;-77
2020/12/02 05:12:01;;;;;;;52.33;30.20;;;;;;;;;;5097858;27;20424;-77
2020/12/02 05:14:44;;;;;;;50.38;30.95;;;;;;;;;;5091860;27;20885;-78
2020/12/02 05:17:13;;;;;;;55.42;31.42;;;;;;;;;;5100483;28;20463;-77
2020/12/02 05:19:38;;;;;;;54.45;31.05;;;;;;;;;;5111551;28;20388;-77
2020/12/02 05:22:06;;;;;;;56.03;31.80;;;;;;;;;;5115772;27;20499;-78
2020/12/02 05:24:41;;;;;;;55.73;32.30;;;;;;;;;;5085484;27;20584;-77
2020/12/02 05:27:10;;;;;;;55.27;30.87;;;;;;;;;;5111420;27;20835;-77
2020/12/02 05:29:48;;;;;;;52.63;30.83;;;;;;;;;;5101784;27;20866;-77
2020/12/02 05:32:17;;;;;;;53.97;31.13;;;;;;;;;;5115174;27;20853;-77
2020/12/02 05:34:43;;;;;;;53.97;30.23;;;;;;;;;;5111529;27;20946;-77
2020/12/02 05:37:11;;;;;;;52.58;31.60;;;;;;;;;;5112263;27;20392;-77
2020/12/02 05:39:59;;;;;;;54.13;31.33;;;;;;;;;;5108908;27;20422;-77
2020/12/02 05:42:32;;;;;;;54.58;31.20;;;;;;;;;;5106105;27;20445;-77
2020/12/02 05:45:02;;;;;;;53.35;30.20;;;;;;;;;;5121042;27;20386;-78
2020/12/02 05:47:28;;;;;;;49.70;28.63;;;;;;;;;;5106301;27;20791;-77
2020/12/02 05:49:58;;;;;;;50.13;28.95;;;;;;;;;;5114152;27;20839;-77
2020/12/02 05:52:28;;;;;;;50.65;30.48;;;;;;;;;;5107651;27;20799;-77
2020/12/02 05:54:56;;;;;;;51.10;29.52;;;;;;;;;;5119903;27;20410;-78
2020/12/02 05:57:22;;;;;;;48.83;29.80;;;;;;;;;;5132092;27;20927;-77
2020/12/02 05:59:51;;;;;;;50.20;29.05;;;;;;;;;;5114960;27;20468;-78
2020/12/02 06:02:19;;;;;;;49.40;29.40;;;;;;;;;;5132203;27;20418;-78
2020/12/02 06:04:49;;;;;;;51.38;31.10;;;;;;;;;;5113457;27;20408;-77
2020/12/02 06:07:15;;;;;;;54.60;30.00;;;;;;;;;;5132316;27;20383;-77
2020/12/02 06:09:46;;;;;;;50.38;29.08;;;;;;;;;;5085579;28;20397;-78
2020/12/02 06:12:16;;;;;;;48.22;29.45;;;;;;;;;;5101274;27;20395;-77
2020/12/02 06:14:42;;;;;;;51.65;31.60;;;;;;;;;;5090531;28;20443;-78
2020/12/02 06:17:24;;;;;;;52.55;30.77;;;;;;;;;;5095348;28;20420;-77
2020/12/02 06:19:50;;;;;;;52.00;30.73;;;;;;;;;;5114551;27;20385;-77
2020/12/02 06:22:35;;;;;;;46.63;29.45;;;;;;;;;;5116967;27;20461;-78
2020/12/02 06:25:01;;;;;;;49.28;30.27;;;;;;;;;;5109996;27;20512;-78
2020/12/02 06:27:30;;;;;;;52.50;31.17;;;;;;;;;;5103264;28;20471;-78
2020/12/02 06:30:05;;;;;;;53.90;30.70;;;;;;;;;;5100801;27;20626;-78
2020/12/02 06:32:32;;;;;;;54.80;31.92;;;;;;;;;;5103266;28;20399;-78
2020/12/02 06:35:18;;;;;;;54.78;31.77;;;;;;;;;;5108269;27;20528;-77
2020/12/02 06:38:04;;;;;;;53.33;30.85;;;;;;;;;;5116347;27;20396;-78
2020/12/02 06:40:30;;;;;;;53.75;31.60;;;;;;;;;;5104449;27;20885;-78
2020/12/02 06:43:04;;;;;;;49.95;29.98;;;;;;;;;;5109392;28;20451;-78
2020/12/02 06:45:34;;;;;;;56.15;32.03;;;;;;;;;;5115729;28;20386;-78
2020/12/02 06:48:00;;;;;;;51.20;30.88;;;;;;;;;;5080567;28;20387;-77
2020/12/02 06:50:31;;;;;;;53.70;31.92;;;;;;;;;;5118687;28;20867;-77
2020/12/02 06:53:17;;;;;;;56.88;31.58;;;;;;;;;;5102075;28;20864;-77
2020/12/02 06:55:45;;;;;;;50.50;30.88;;;;;;;;;;5101796;28;20398;-78
2020/12/02 06:58:21;;;;;;;52.45;30.88;;;;;;;;;;5107878;28;20399;-77
2020/12/02 07:00:48;;;;;;;52.40;32.15;;;;;;;;;;5102563;28;20386;-77
2020/12/02 07:03:33;;;;;;;50.53;30.00;;;;;;;;;;5096877;28;20842;-77
2020/12/02 07:06:17;;;;;;;50.17;29.90;;;;;;;;;;5103032;28;20375;-77
2020/12/02 07:08:44;;;;;;;52.53;30.20;;;;;;;;;;5116620;28;20389;-79
2020/12/02 07:11:24;;;;;;;53.00;32.15;;;;;;;;;;5108890;28;20913;-78
2020/12/02 07:13:51;;;;;;;54.72;32.60;;;;;;;;;;5115945;28;20417;-78
2020/12/02 07:16:34;;;;;;;55.00;32.42;;;;;;;;;;5114966;28;20434;-78
2020/12/02 07:19:01;;;;;;;54.45;32.72;;;;;;;;;;5103349;28;20897;-77
2020/12/02 07:21:39;;;;;;;58.10;33.10;;;;;;;;;;5123525;28;20755;-77
2020/12/02 07:24:06;;;;;;;55.22;30.10;;;;;;;;;;5119071;27;20417;-77
2020/12/02 07:26:32;;;;;;;55.33;31.90;;;;;;;;;;5131165;27;20451;-78
2020/12/02 07:28:59;;;;;;;51.80;31.90;;;;;;;;;;5111585;27;20737;-78
2020/12/02 07:31:26;;;;;;;54.38;31.65;;;;;;;;;;5104541;27;20392;-77
2020/12/02 07:34:01;;;;;;;55.05;31.70;;;;;;;;;;5130909;27;20411;-77
2020/12/02 07:36:28;;;;;;;58.03;32.05;;;;;;;;;;5119192;27;20378;-77
2020/12/02 07:39:00;;;;;;;58.70;32.37;;;;;;;;;;5102131;28;20495;-78
2020/12/02 07:41:26;;;;;;;56.20;33.38;;;;;;;;;;5117510;27;20418;-78
2020/12/02 07:43:52;;;;;;;53.60;31.45;;;;;;;;;;5117110;27;20383;-77
2020/12/02 07:46:22;;;;;;;59.33;32.90;;;;;;;;;;5122293;27;20387;-77
2020/12/02 07:48:50;;;;;;;57.50;33.35;;;;;;;;;;5117308;27;20383;-77
2020/12/02 07:51:16;;;;;;;54.80;31.77;;;;;;;;;;5131254;27;20865;-77
2020/12/02 07:54:02;;;;;;;56.03;32.38;;;;;;;;;;5125484;27;20610;-78
2020/12/02 07:56:33;;;;;;;65.32;34.38;;;;;;;;;;5125003;27;20383;-77
2020/12/02 07:59:06;;;;;;;54.53;33.25;;;;;;;;;;5122240;27;20393;-77
2020/12/02 08:01:35;;;;;;;54.13;32.10;;;;;;;;;;5111789;27;20402;-78
2020/12/02 08:04:20;;;;;;;54.92;32.10;;;;;;;;;;5108609;27;20394;-77
2020/12/02 08:06:48;;;;;;;57.65;32.78;;;;;;;;;;5096645;27;20376;-77
2020/12/02 08:09:14;;;;;;;59.80;33.25;;;;;;;;;;5129535;27;20475;-77
2020/12/02 08:11:54;;;;;;;60.47;33.13;;;;;;;;;;5129620;27;20390;-77
2020/12/02 08:14:25;;;;;;;56.05;33.45;;;;;;;;;;5101266;28;20491;-77
2020/12/02 08:16:52;;;;;;;58.45;33.70;;;;;;;;;;5114152;27;20443;-78
2020/12/02 08:19:29;;;;;;;55.67;34.08;;;;;;;;;;5103279;27;20753;-77
2020/12/02 08:21:55;;;;;;;61.42;32.88;;;;;;;;;;5105236;27;20406;-77
2020/12/02 08:24:28;;;;;;;55.47;32.05;;;;;;;;;;5100943;27;20405;-78
2020/12/02 08:26:54;;;;;;;54.67;31.35;;;;;;;;;;5093366;28;20763;-77
2020/12/02 08:29:22;;;;;;;55.20;32.37;;;;;;;;;;5097341;28;20496;-77
2020/12/02 08:31:58;;;;;;;57.00;31.77;;;;;;;;;;5099530;28;20400;-77
2020/12/02 08:34:24;;;;;;;52.70;31.00;;;;;;;;;;5126961;27;20394;-77
2020/12/02 08:37:09;;;;;;;51.83;30.55;;;;;;;;;;5110763;27;20545;-77
2020/12/02 08:39:35;;;;;;;49.90;29.80;;;;;;;;;;5119483;27;20478;-77
2020/12/02 08:42:01;;;;;;;51.28;30.00;;;;;;;;;;5119845;27;20968;-77
2020/12/02 08:44:27;;;;;;;55.55;32.03;;;;;;;;;;5124169;27;20934;-77
2020/12/02 08:47:10;;;;;;;55.50;30.58;;;;;;;;;;5109781;27;20376;-77
2020/12/02 08:49:37;;;;;;;51.03;29.23;;;;;;;;;;5104785;27;20396;-76
2020/12/02 08:52:03;;;;;;;49.42;28.77;;;;;;;;;;5110060;27;20395;-77
2020/12/02 08:54:29;;;;;;;56.53;30.67;;;;;;;;;;5111663;27;20396;-77
2020/12/02 08:57:03;;;;;;;54.90;30.20;;;;;;;;;;5102219;28;20384;-77
2020/12/02 08:59:29;;;;;;;58.53;30.23;;;;;;;;;;5098670;27;20399;-78
2020/12/02 09:02:02;;;;;;;54.63;28.65;;;;;;;;;;5098527;28;20407;-77
2020/12/02 09:04:28;;;;;;;51.50;29.67;;;;;;;;;;5112537;27;20406;-76
2020/12/02 09:06:54;;;;;;;52.38;29.08;;;;;;;;;;5097792;27;20391;-77
2020/12/02 09:09:20;;;;;;;48.65;27.42;;;;;;;;;;5120426;27;20405;-76
2020/12/02 09:11:46;;;;;;;49.90;27.40;;;;;;;;;;5107514;27;20447;-76
2020/12/02 09:14:13;;;;;;;47.92;26.95;;;;;;;;;;5095655;28;20384;-76
2020/12/02 09:16:40;;;;;;;39.20;23.40;;;;;;;;;;5126176;27;20387;-76
2020/12/02 09:19:07;;;;;;;48.77;24.93;;;;;;;;;;5092205;28;20483;-78
2020/12/02 09:21:33;;;;;;;40.60;23.58;;;;;;;;;;5103476;27;20466;-78
2020/12/02 09:23:59;;;;;;;36.95;22.73;;;;;;;;;;5099263;28;20883;-77
2020/12/02 09:26:27;;;;;;;39.45;23.13;;;;;;;;;;5104308;27;20956;-78
2020/12/02 09:28:53;;;;;;;41.67;24.00;;;;;;;;;;5084638;27;20492;-78
2020/12/02 09:31:20;;;;;;;42.15;24.50;;;;;;;;;;5096154;27;20397;-78
2020/12/02 09:33:47;;;;;;;43.95;24.42;;;;;;;;;;5102292;27;20483;-78
2020/12/02 09:36:14;;;;;;;41.38;24.08;;;;;;;;;;5119292;27;20389;-78
2020/12/02 09:38:40;;;;;;;40.67;23.33;;;;;;;;;;5084580;28;20444;-78
2020/12/02 09:41:16;;;;;;;40.88;22.95;;;;;;;;;;5110444;27;21075;-78
2020/12/02 09:43:51;;;;;;;43.42;23.70;;;;;;;;;;5113792;27;20470;-78
2020/12/02 09:46:20;;;;;;;39.95;23.38;;;;;;;;;;5098359;27;20406;-78
2020/12/02 09:48:53;;;;;;;38.17;22.30;;;;;;;;;;5098450;27;20410;-78
2020/12/02 09:51:24;;;;;;;38.47;22.92;;;;;;;;;;5106515;27;20900;-78
2020/12/02 09:53:51;;;;;;;40.20;23.85;;;;;;;;;;5101490;27;20927;-78
2020/12/02 09:56:18;;;;;;;39.67;22.47;;;;;;;;;;5108169;27;20454;-77
2020/12/02 09:58:44;;;;;;;43.10;24.10;;;;;;;;;;5091160;27;20845;-78
2020/12/02 10:01:16;;;;;;;43.72;24.40;;;;;;;;;;5121207;27;20447;-78
2020/12/02 10:04:00;;;;;;;44.10;24.00;;;;;;;;;;5097669;27;20838;-78
2020/12/02 10:06:45;;;;;;;43.00;24.65;;;;;;;;;;5102444;27;20492;-78
2020/12/02 10:09:30;;;;;;;44.67;23.90;;;;;;;;;;5094104;28;20417;-78
2020/12/02 10:12:16;;;;;;;42.60;24.27;;;;;;;;;;5110203;27;20519;-77
2020/12/02 10:14:51;;;;;;;41.22;23.58;;;;;;;;;;5109573;27;20394;-77
2020/12/02 10:17:37;;;;;;;41.83;23.77;;;;;;;;;;5115605;27;20378;-77
2020/12/02 10:20:15;;;;;;;39.35;22.48;;;;;;;;;;5086495;27;20401;-76
2020/12/02 10:22:54;;;;;;;42.47;22.65;;;;;;;;;;5109426;27;20912;-77
2020/12/02 10:25:40;;;;;;;37.50;21.33;;;;;;;;;;5105764;27;20952;-77
2020/12/02 10:28:18;;;;;;;36.45;21.33;;;;;;;;;;5118194;27;22183;-77
2020/12/02 10:31:04;;;;;;;35.90;20.85;;;;;;;;;;5109345;27;20390;-77
2020/12/02 10:33:41;;;;;;;37.33;22.20;;;;;;;;;;5093318;27;20398;-76
2020/12/02 10:36:07;;;;;;;37.60;22.88;;;;;;;;;;5112054;27;20445;-77
2020/12/02 10:38:36;;;;;;;37.08;22.70;;;;;;;;;;5116336;27;20389;-77
2020/12/02 10:41:25;;;;;;;35.72;21.20;;;;;;;;;;5097151;28;20392;-77
2020/12/02 10:44:00;;;;;;;36.58;21.38;;;;;;;;;;5102988;28;20481;-77
2020/12/02 10:46:46;;;;;;;37.13;22.42;;;;;;;;;;5100585;28;20405;-78
2020/12/02 10:49:38;;;;;;;35.85;21.40;;;;;;;;;;5064550;28;20404;-78
2020/12/02 10:52:05;;;;;;;32.43;20.47;;;;;;;;;;5057432;28;20877;-76
2020/12/02 10:54:35;;;;;;;33.47;20.60;;;;;;;;;;5122152;28;20718;-77
2020/12/02 10:57:02;;;;;;;29.83;20.52;;;;;;;;;;5097542;28;20432;-76
2020/12/02 10:59:28;;;;;;;32.13;20.80;;;;;;;;;;5117360;27;20462;-76
2020/12/02 11:01:54;;;;;;;30.25;19.55;;;;;;;;;;5119745;27;20396;-76
2020/12/02 11:04:21;;;;;;;31.60;20.90;;;;;;;;;;5127557;27;20383;-77
2020/12/02 11:06:47;;;;;;;34.43;21.47;;;;;;;;;;5104224;27;20504;-76
2020/12/02 11:09:29;;;;;;;33.38;21.27;;;;;;;;;;5117443;27;20463;-76
2020/12/02 11:12:13;;;;;;;31.48;20.90;;;;;;;;;;5103563;27;20432;-77
2020/12/02 11:15:01;;;;;;;37.25;21.90;;;;;;;;;;5124958;27;20469;-76
2020/12/02 11:17:45;;;;;;;33.25;20.60;;;;;;;;;;5101338;27;20384;-77
2020/12/02 11:20:17;;;;;;;36.83;22.08;;;;;;;;;;5103646;28;20396;-77
2020/12/02 11:22:51;;;;;;;36.33;21.67;;;;;;;;;;5102305;27;20400;-78
2020/12/02 11:25:21;;;;;;;34.88;21.98;;;;;;;;;;5121545;27;20384;-77
2020/12/02 11:27:53;;;;;;;32.50;21.53;;;;;;;;;;5122592;27;20378;-77
2020/12/02 11:30:37;;;;;;;35.78;21.88;;;;;;;;;;5123687;27;20378;-77
2020/12/02 11:33:10;;;;;;;35.08;21.95;;;;;;;;;;5112125;27;20893;-77
2020/12/02 11:35:46;;;;;;;30.88;20.35;;;;;;;;;;5107567;27;20400;-79
2020/12/02 11:38:38;;;;;;;33.42;21.33;;;;;;;;;;5110278;27;20496;-78
2020/12/02 11:41:12;;;;;;;32.40;20.25;;;;;;;;;;5084618;28;20476;-78
2020/12/02 11:43:41;;;;;;;31.23;20.48;;;;;;;;;;5085339;28;20384;-77
2020/12/02 11:46:09;;;;;;;33.40;20.95;;;;;;;;;;5085643;28;20429;-77
2020/12/02 11:48:55;;;;;;;30.40;20.02;;;;;;;;;;5099521;27;20395;-78
2020/12/02 11:51:29;;;;;;;32.90;21.20;;;;;;;;;;5108886;28;20401;-77
2020/12/02 11:54:07;;;;;;;30.58;20.42;;;;;;;;;;5115291;27;20393;-77
2020/12/02 11:56:36;;;;;;;31.30;20.48;;;;;;;;;;5119574;27;20402;-77
2020/12/02 11:59:13;;;;;;;32.90;21.27;;;;;;;;;;5096926;28;20413;-77
2020/12/02 12:01:50;;;;;;;32.20;21.23;;;;;;;;;;5103498;28;20494;-77
2020/12/02 12:04:25;;;;;;;29.15;19.80;;;;;;;;;;5117912;27;20382;-77
2020/12/02 12:06:52;;;;;;;28.50;18.33;;;;;;;;;;5106149;28;20388;-77
2020/12/02 12:09:22;;;;;;;30.38;19.50;;;;;;;;;;5098188;28;20373;-78
2020/12/02 12:11:48;;;;;;;31.55;21.13;;;;;;;;;;5118060;27;20861;-77
2020/12/02 12:14:29;;;;;;;37.53;23.63;;;;;;;;;;5116389;27;20397;-77
2020/12/02 12:17:13;;;;;;;36.17;23.33;;;;;;;;;;5105082;27;20399;-77
2020/12/02 12:19:45;;;;;;;34.17;22.35;;;;;;;;;;5098251;27;22229;-76
2020/12/02 12:22:29;;;;;;;34.83;22.03;;;;;;;;;;5112323;27;20404;-77
2020/12/02 12:24:57;;;;;;;34.63;21.52;;;;;;;;;;5115826;27;20417;-77
2020/12/02 12:27:28;;;;;;;31.10;20.40;;;;;;;;;;5104043;27;20447;-78
2020/12/02 12:29:54;;;;;;;34.63;20.80;;;;;;;;;;5116666;27;20384;-78
2020/12/02 12:32:39;;;;;;;27.53;18.47;;;;;;;;;;5118469;27;21177;-77
2020/12/02 12:35:11;;;;;;;30.38;19.40;;;;;;;;;;5084947;28;20392;-78
2020/12/02 12:38:12;;;;;;;30.65;20.00;;;;;;;;;;5104148;28;20400;-78
2020/12/02 12:40:43;;;;;;;30.90;20.55;;;;;;;;;;5011666;28;21167;-78
2020/12/02 12:43:12;;;;;;;34.35;21.05;;;;;;;;;;5099519;27;20472;-79
2020/12/02 12:45:47;;;;;;;35.75;21.98;;;;;;;;;;5106737;28;20412;-77
2020/12/02 12:48:15;;;;;;;32.47;20.67;;;;;;;;;;5119324;27;20789;-77
2020/12/02 12:50:42;;;;;;;33.13;20.85;;;;;;;;;;5092400;28;20445;-77
2020/12/02 12:53:08;;;;;;;36.40;20.97;;;;;;;;;;5115074;27;20450;-78
2020/12/02 12:55:35;;;;;;;31.45;20.13;;;;;;;;;;5089739;28;20761;-78
2020/12/02 12:58:09;;;;;;;32.63;20.17;;;;;;;;;;5124984;27;20378;-77
2020/12/02 13:00:37;;;;;;;30.38;19.85;;;;;;;;;;5097549;28;21132;-77
2020/12/02 13:03:10;;;;;;;30.95;19.92;;;;;;;;;;5110087;27;20911;-78
2020/12/02 13:05:36;;;;;;;32.93;20.13;;;;;;;;;;5116736;27;20747;-77
2020/12/02 13:08:07;;;;;;;32.33;19.90;;;;;;;;;;5094064;28;20416;-76
2020/12/02 13:10:53;;;;;;;32.38;19.50;;;;;;;;;;5103168;27;20413;-76
2020/12/02 13:13:23;;;;;;;32.53;19.90;;;;;;;;;;5126071;27;20384;-77
2020/12/02 13:16:11;;;;;;;32.90;20.52;;;;;;;;;;5106630;28;20376;-77
2020/12/02 13:18:49;;;;;;;31.00;19.95;;;;;;;;;;5094392;27;20435;-77
2020/12/02 13:21:17;;;;;;;33.03;20.52;;;;;;;;;;5104605;27;20410;-76
2020/12/02 13:24:02;;;;;;;31.00;19.73;;;;;;;;;;5109129;28;20404;-76
2020/12/02 13:26:28;;;;;;;32.50;19.67;;;;;;;;;;5111085;28;20392;-76
2020/12/02 13:29:00;;;;;;;29.98;19.05;;;;;;;;;;5112417;28;20429;-77
2020/12/02 13:31:31;;;;;;;31.17;20.13;;;;;;;;;;5100298;27;20439;-76
2020/12/02 13:33:57;;;;;;;30.40;18.85;;;;;;;;;;5119628;27;20392;-76
2020/12/02 13:36:23;;;;;;;30.85;18.90;;;;;;;;;;5097372;28;20473;-76
2020/12/02 13:38:50;;;;;;;32.10;19.00;;;;;;;;;;5097451;27;20485;-77
2020/12/02 13:41:18;;;;;;;29.60;18.25;;;;;;;;;;5112393;27;20407;-76
2020/12/02 13:43:45;;;;;;;28.75;18.23;;;;;;;;;;5122426;27;20482;-76
2020/12/02 13:46:11;;;;;;;27.30;17.88;;;;;;;;;;5077127;28;20394;-76
2020/12/02 13:48:37;;;;;;;29.70;18.15;;;;;;;;;;5092426;28;20393;-78
2020/12/02 13:51:15;;;;;;;28.30;17.67;;;;;;;;;;5103801;28;20441;-77
2020/12/02 13:53:43;;;;;;;26.73;17.85;;;;;;;;;;5102798;28;20472;-77
2020/12/02 13:56:16;;;;;;;27.52;18.00;;;;;;;;;;5101046;28;20955;-76
2020/12/02 13:58:48;;;;;;;29.20;18.60;;;;;;;;;;5092375;28;20723;-76
2020/12/02 14:01:20;;;;;;;30.40;18.57;;;;;;;;;;5092343;27;20970;-76
2020/12/02 14:04:02;;;;;;;28.42;18.50;;;;;;;;;;5108428;27;20378;-76
2020/12/02 14:06:27;;;;;;;29.75;17.85;;;;;;;;;;5113178;27;20396;-76
2020/12/02 14:08:54;;;;;;;30.77;17.92;;;;;;;;;;5104025;28;20435;-76
2020/12/02 14:11:31;;;;;;;29.02;17.55;;;;;;;;;;5104444;28;20489;-77
2020/12/02 14:13:57;;;;;;;26.07;17.20;;;;;;;;;;5109449;27;20519;-77
2020/12/02 14:16:23;;;;;;;30.52;18.45;;;;;;;;;;5105308;27;20472;-77
2020/12/02 14:18:49;;;;;;;31.85;18.73;;;;;;;;;;5099061;28;20388;-77
2020/12/02 14:21:15;;;;;;;30.63;18.95;;;;;;;;;;5091032;28;20771;-77
2020/12/02 14:23:42;;;;;;;32.58;19.60;;;;;;;;;;5117016;27;20391;-77
2020/12/02 14:26:08;;;;;;;35.63;20.42;;;;;;;;;;5091613;28;20404;-76
2020/12/02 14:28:34;;;;;;;36.60;20.67;;;;;;;;;;5096243;28;20375;-76
2020/12/02 14:31:00;;;;;;;31.93;18.97;;;;;;;;;;5111472;27;20946;-76
2020/12/02 14:33:38;;;;;;;30.45;18.58;;;;;;;;;;5095663;28;20427;-77
2020/12/02 14:36:04;;;;;;;31.85;19.10;;;;;;;;;;5090417;28;20729;-77
2020/12/02 14:38:30;;;;;;;34.20;19.92;;;;;;;;;;5084952;28;20381;-76